sensor_id;sensor_type;location;lat;lon;timestamp;pressure;altitude;pressure_sealevel;temperature;humidity
12182;BME280;6154;51.550;12.138;2023-04-21T00:00:06;100694.22;;;13.72;62.09
12182;BME280;6154;51.550;12.138;2023-04-21T00:02:37;100693.22;;;13.74;62.30
12182;BME280;6154;51.550;12.138;2023-04-21T00:05:08;100683.84;;;13.81;62.19
12182;BME280;6154;51.550;12.138;2023-04-21T00:07:38;100681.03;;;13.85;62.38
12182;BME280;6154;51.550;12.138;2023-04-21T00:10:08;100684.44;;;13.87;62.79
12182;BME280;6154;51.550;12.138;2023-04-21T00:12:37;100683.16;;;13.92;62.40
12182;BME280;6154;51.550;12.138;2023-04-21T00:15:07;100683.63;;;13.99;62.24
12182;BME280;6154;51.550;12.138;2023-04-21T00:17:36;100682.50;;;14.03;62.57
12182;BME280;6154;51.550;12.138;2023-04-21T00:20:06;100684.00;;;14.07;62.25
12182;BME280;6154;51.550;12.138;2023-04-21T00:22:35;100677.50;;;14.11;62.27
12182;BME280;6154;51.550;12.138;2023-04-21T00:25:04;100675.78;;;14.10;62.45
12182;BME280;6154;51.550;12.138;2023-04-21T00:27:33;100676.47;;;14.14;62.16
12182;BME280;6154;51.550;12.138;2023-04-21T00:30:01;100675.50;;;14.15;62.03
12182;BME280;6154;51.550;12.138;2023-04-21T00:32:30;100671.16;;;14.14;61.82
12182;BME280;6154;51.550;12.138;2023-04-21T00:34:58;100667.63;;;14.13;61.58
12182;BME280;6154;51.550;12.138;2023-04-21T00:37:27;100658.88;;;14.11;61.36
12182;BME280;6154;51.550;12.138;2023-04-21T00:39:55;100661.84;;;14.06;61.41
12182;BME280;6154;51.550;12.138;2023-04-21T00:42:24;100667.37;;;14.03;61.35
12182;BME280;6154;51.550;12.138;2023-04-21T00:44:53;100653.41;;;14.00;61.60
12182;BME280;6154;51.550;12.138;2023-04-21T00:47:22;100664.03;;;14.00;61.30
12182;BME280;6154;51.550;12.138;2023-04-21T00:49:52;100653.72;;;13.95;61.78
12182;BME280;6154;51.550;12.138;2023-04-21T00:52:21;100657.22;;;13.96;61.45
12182;BME280;6154;51.550;12.138;2023-04-21T00:54:49;100655.62;;;13.93;61.65
12182;BME280;6154;51.550;12.138;2023-04-21T00:57:18;100648.56;;;13.92;61.55
12182;BME280;6154;51.550;12.138;2023-04-21T00:59:46;100653.03;;;13.92;61.40
12182;BME280;6154;51.550;12.138;2023-04-21T01:02:17;100652.28;;;13.90;61.50
12182;BME280;6154;51.550;12.138;2023-04-21T01:04:47;100651.56;;;13.88;61.65
12182;BME280;6154;51.550;12.138;2023-04-21T01:07:16;100653.25;;;13.89;61.47
12182;BME280;6154;51.550;12.138;2023-04-21T01:09:44;100648.78;;;13.89;61.42
12182;BME280;6154;51.550;12.138;2023-04-21T01:12:12;100643.69;;;13.86;61.78
12182;BME280;6154;51.550;12.138;2023-04-21T01:14:41;100639.50;;;13.82;62.26
12182;BME280;6154;51.550;12.138;2023-04-21T01:17:09;100645.66;;;13.82;62.19
12182;BME280;6154;51.550;12.138;2023-04-21T01:19:40;100639.50;;;13.82;62.19
12182;BME280;6154;51.550;12.138;2023-04-21T01:22:11;100633.31;;;13.81;62.44
12182;BME280;6154;51.550;12.138;2023-04-21T01:24:42;100641.13;;;13.85;62.04
12182;BME280;6154;51.550;12.138;2023-04-21T01:27:12;100630.66;;;13.81;62.03
12182;BME280;6154;51.550;12.138;2023-04-21T01:29:42;100629.81;;;13.81;62.04
12182;BME280;6154;51.550;12.138;2023-04-21T01:32:13;100635.12;;;13.81;62.41
12182;BME280;6154;51.550;12.138;2023-04-21T01:34:43;100635.78;;;13.85;62.34
12182;BME280;6154;51.550;12.138;2023-04-21T01:37:15;100638.34;;;13.86;61.91
12182;BME280;6154;51.550;12.138;2023-04-21T01:39:46;100636.66;;;13.85;62.41
12182;BME280;6154;51.550;12.138;2023-04-21T01:42:14;100640.25;;;13.84;62.41
12182;BME280;6154;51.550;12.138;2023-04-21T01:44:42;100643.78;;;13.85;62.27
12182;BME280;6154;51.550;12.138;2023-04-21T01:47:16;100627.72;;;13.86;62.39
12182;BME280;6154;51.550;12.138;2023-04-21T01:49:44;100638.25;;;13.88;62.11
12182;BME280;6154;51.550;12.138;2023-04-21T01:52:14;100635.69;;;13.86;62.30
12182;BME280;6154;51.550;12.138;2023-04-21T01:54:42;100626.00;;;13.85;62.21
12182;BME280;6154;51.550;12.138;2023-04-21T01:57:10;100624.31;;;13.84;62.42
12182;BME280;6154;51.550;12.138;2023-04-21T01:59:39;100625.06;;;13.86;62.43
12182;BME280;6154;51.550;12.138;2023-04-21T02:02:07;100626.00;;;13.85;62.48
12182;BME280;6154;51.550;12.138;2023-04-21T02:04:36;100630.66;;;13.81;62.98
12182;BME280;6154;51.550;12.138;2023-04-21T02:07:05;100628.56;;;13.87;62.42
12182;BME280;6154;51.550;12.138;2023-04-21T02:09:34;100627.81;;;13.85;62.37
12182;BME280;6154;51.550;12.138;2023-04-21T02:12:03;100623.44;;;13.84;62.50
12182;BME280;6154;51.550;12.138;2023-04-21T02:14:31;100625.34;;;13.81;62.53
12182;BME280;6154;51.550;12.138;2023-04-21T02:16:59;100622.59;;;13.83;62.31
12182;BME280;6154;51.550;12.138;2023-04-21T02:19:29;100626.19;;;13.82;62.47
12182;BME280;6154;51.550;12.138;2023-04-21T02:21:58;100617.28;;;13.83;62.34
12182;BME280;6154;51.550;12.138;2023-04-21T02:24:26;100629.69;;;13.82;62.39
12182;BME280;6154;51.550;12.138;2023-04-21T02:26:56;100628.09;;;13.80;62.79
12182;BME280;6154;51.550;12.138;2023-04-21T02:29:27;100627.56;;;13.75;63.56
12182;BME280;6154;51.550;12.138;2023-04-21T02:31:55;100629.38;;;13.74;63.12
12182;BME280;6154;51.550;12.138;2023-04-21T02:34:31;100630.22;;;13.75;62.86
12182;BME280;6154;51.550;12.138;2023-04-21T02:36:59;100629.53;;;13.71;63.34
12182;BME280;6154;51.550;12.138;2023-04-21T02:39:28;100628.59;;;13.72;63.18
12182;BME280;6154;51.550;12.138;2023-04-21T02:41:58;100634.00;;;13.71;63.09
12182;BME280;6154;51.550;12.138;2023-04-21T02:44:26;100627.31;;;13.65;63.47
12182;BME280;6154;51.550;12.138;2023-04-21T02:46:54;100624.66;;;13.65;63.24
12182;BME280;6154;51.550;12.138;2023-04-21T02:49:22;100634.44;;;13.65;63.02
12182;BME280;6154;51.550;12.138;2023-04-21T02:51:50;100628.25;;;13.64;62.95
12182;BME280;6154;51.550;12.138;2023-04-21T02:54:18;100630.06;;;13.64;62.40
12182;BME280;6154;51.550;12.138;2023-04-21T02:56:46;100631.88;;;13.63;62.54
12182;BME280;6154;51.550;12.138;2023-04-21T02:59:16;100634.59;;;13.62;62.41
12182;BME280;6154;51.550;12.138;2023-04-21T03:01:45;100621.41;;;13.60;62.71
12182;BME280;6154;51.550;12.138;2023-04-21T03:04:15;100629.50;;;13.59;62.95
12182;BME280;6154;51.550;12.138;2023-04-21T03:06:43;100624.38;;;13.56;63.27
12182;BME280;6154;51.550;12.138;2023-04-21T03:09:11;100623.00;;;13.63;62.58
12182;BME280;6154;51.550;12.138;2023-04-21T03:11:39;100634.59;;;13.62;62.73
12182;BME280;6154;51.550;12.138;2023-04-21T03:14:07;100633.75;;;13.61;62.65
12182;BME280;6154;51.550;12.138;2023-04-21T03:16:36;100625.97;;;13.58;62.66
12182;BME280;6154;51.550;12.138;2023-04-21T03:19:05;100623.53;;;13.55;62.87
12182;BME280;6154;51.550;12.138;2023-04-21T03:21:35;100628.84;;;13.55;62.90
12182;BME280;6154;51.550;12.138;2023-04-21T03:24:04;100627.31;;;13.51;63.50
12182;BME280;6154;51.550;12.138;2023-04-21T03:26:33;100623.69;;;13.52;62.93
12182;BME280;6154;51.550;12.138;2023-04-21T03:29:01;100623.69;;;13.52;62.56
12182;BME280;6154;51.550;12.138;2023-04-21T03:31:29;100622.94;;;13.50;62.48
12182;BME280;6154;51.550;12.138;2023-04-21T03:33:59;100623.91;;;13.49;62.44
12182;BME280;6154;51.550;12.138;2023-04-21T03:36:27;100620.50;;;13.47;62.61
12182;BME280;6154;51.550;12.138;2023-04-21T03:38:55;100624.31;;;13.43;62.97
12182;BME280;6154;51.550;12.138;2023-04-21T03:41:39;100623.37;;;13.44;62.90
12182;BME280;6154;51.550;12.138;2023-04-21T03:44:08;100619.75;;;13.45;62.69
12182;BME280;6154;51.550;12.138;2023-04-21T03:46:38;100619.00;;;13.43;62.66
12182;BME280;6154;51.550;12.138;2023-04-21T03:49:07;100628.69;;;13.44;62.40
12182;BME280;6154;51.550;12.138;2023-04-21T03:51:35;100618.22;;;13.41;62.56
12182;BME280;6154;51.550;12.138;2023-04-21T03:54:03;100622.78;;;13.39;62.75
12182;BME280;6154;51.550;12.138;2023-04-21T03:56:31;100625.44;;;13.39;62.66
12182;BME280;6154;51.550;12.138;2023-04-21T03:58:59;100626.41;;;13.38;62.57
12182;BME280;6154;51.550;12.138;2023-04-21T04:01:27;100622.03;;;13.37;62.51
12182;BME280;6154;51.550;12.138;2023-04-21T04:03:55;100630.00;;;13.37;62.57
12182;BME280;6154;51.550;12.138;2023-04-21T04:06:25;100630.00;;;13.37;62.54
12182;BME280;6154;51.550;12.138;2023-04-21T04:08:54;100630.22;;;13.34;62.59
12182;BME280;6154;51.550;12.138;2023-04-21T04:11:22;100627.56;;;13.34;62.57
12182;BME280;6154;51.550;12.138;2023-04-21T04:13:50;100630.22;;;13.34;62.73
12182;BME280;6154;51.550;12.138;2023-04-21T04:16:18;100627.63;;;13.32;62.90
12182;BME280;6154;51.550;12.138;2023-04-21T04:18:48;100626.72;;;13.33;62.92
12182;BME280;6154;51.550;12.138;2023-04-21T04:21:16;100625.75;;;13.34;63.15
12182;BME280;6154;51.550;12.138;2023-04-21T04:23:46;100628.31;;;13.36;62.98
12182;BME280;6154;51.550;12.138;2023-04-21T04:26:14;100628.97;;;13.39;62.83
12182;BME280;6154;51.550;12.138;2023-04-21T04:28:42;100629.16;;;13.36;63.22
12182;BME280;6154;51.550;12.138;2023-04-21T04:31:10;100626.09;;;13.42;62.91
12182;BME280;6154;51.550;12.138;2023-04-21T04:33:40;100630.37;;;13.45;62.88
12182;BME280;6154;51.550;12.138;2023-04-21T04:36:08;100634.75;;;13.46;63.13
12182;BME280;6154;51.550;12.138;2023-04-21T04:38:37;100632.84;;;13.48;62.81
12182;BME280;6154;51.550;12.138;2023-04-21T04:41:07;100631.88;;;13.49;63.20
12182;BME280;6154;51.550;12.138;2023-04-21T04:43:35;100629.34;;;13.47;63.76
12182;BME280;6154;51.550;12.138;2023-04-21T04:46:04;100636.81;;;13.55;63.32
12182;BME280;6154;51.550;12.138;2023-04-21T04:48:35;100640.22;;;13.57;63.30
12182;BME280;6154;51.550;12.138;2023-04-21T04:51:03;100634.34;;;13.52;64.37
12182;BME280;6154;51.550;12.138;2023-04-21T04:53:31;100633.84;;;13.60;64.10
12182;BME280;6154;51.550;12.138;2023-04-21T04:55:59;100637.25;;;13.62;64.91
12182;BME280;6154;51.550;12.138;2023-04-21T04:58:29;100641.34;;;13.67;64.33
12182;BME280;6154;51.550;12.138;2023-04-21T05:00:57;100642.00;;;13.71;64.29
12182;BME280;6154;51.550;12.138;2023-04-21T05:03:25;100645.31;;;13.74;64.49
12182;BME280;6154;51.550;12.138;2023-04-21T05:05:53;100643.22;;;13.79;64.54
12182;BME280;6154;51.550;12.138;2023-04-21T05:08:23;100647.28;;;13.85;64.02
12182;BME280;6154;51.550;12.138;2023-04-21T05:10:51;100647.19;;;13.87;64.54
12182;BME280;6154;51.550;12.138;2023-04-21T05:13:19;100643.06;;;13.95;63.99
12182;BME280;6154;51.550;12.138;2023-04-21T05:15:49;100645.62;;;13.97;64.46
12182;BME280;6154;51.550;12.138;2023-04-21T05:18:17;100646.38;;;13.99;64.75
12182;BME280;6154;51.550;12.138;2023-04-21T05:20:45;100653.22;;;14.03;65.12
12182;BME280;6154;51.550;12.138;2023-04-21T05:23:13;100655.66;;;14.06;65.07
12182;BME280;6154;51.550;12.138;2023-04-21T05:25:41;100652.50;;;14.14;64.70
12182;BME280;6154;51.550;12.138;2023-04-21T05:28:09;100650.37;;;14.19;64.54
12182;BME280;6154;51.550;12.138;2023-04-21T05:30:37;100651.97;;;14.21;65.28
12182;BME280;6154;51.550;12.138;2023-04-21T05:33:06;100656.59;;;14.32;64.80
12182;BME280;6154;51.550;12.138;2023-04-21T05:35:35;100657.25;;;14.35;65.33
12182;BME280;6154;51.550;12.138;2023-04-21T05:38:04;100648.69;;;14.45;64.46
12182;BME280;6154;51.550;12.138;2023-04-21T05:40:33;100655.28;;;14.52;64.65
12182;BME280;6154;51.550;12.138;2023-04-21T05:43:00;100657.53;;;14.58;64.73
12182;BME280;6154;51.550;12.138;2023-04-21T05:45:29;100655.41;;;14.63;64.77
12182;BME280;6154;51.550;12.138;2023-04-21T05:47:57;100651.38;;;14.70;65.19
12182;BME280;6154;51.550;12.138;2023-04-21T05:50:26;100653.63;;;14.76;65.04
12182;BME280;6154;51.550;12.138;2023-04-21T05:53:00;100651.19;;;14.86;65.76
12182;BME280;6154;51.550;12.138;2023-04-21T05:55:28;100648.72;;;14.95;65.70
12182;BME280;6154;51.550;12.138;2023-04-21T05:57:57;100653.53;;;15.03;65.47
12182;BME280;6154;51.550;12.138;2023-04-21T06:00:26;100656.91;;;15.18;65.37
12182;BME280;6154;51.550;12.138;2023-04-21T06:02:55;100648.16;;;15.29;65.40
12182;BME280;6154;51.550;12.138;2023-04-21T06:05:23;100653.69;;;15.38;65.06
12182;BME280;6154;51.550;12.138;2023-04-21T06:07:53;100654.31;;;15.42;64.88
12182;BME280;6154;51.550;12.138;2023-04-21T06:10:21;100657.94;;;15.53;64.56
12182;BME280;6154;51.550;12.138;2023-04-21T06:12:49;100649.59;;;15.58;64.36
12182;BME280;6154;51.550;12.138;2023-04-21T06:15:17;100655.38;;;15.65;64.40
12182;BME280;6154;51.550;12.138;2023-04-21T06:17:45;100655.75;;;15.71;64.61
12182;BME280;6154;51.550;12.138;2023-04-21T06:20:13;100657.75;;;15.80;64.28
12182;BME280;6154;51.550;12.138;2023-04-21T06:22:43;100653.91;;;15.85;64.56
12182;BME280;6154;51.550;12.138;2023-04-21T06:25:13;100655.03;;;15.93;64.27
12182;BME280;6154;51.550;12.138;2023-04-21T06:27:41;100650.50;;;16.06;64.09
12182;BME280;6154;51.550;12.138;2023-04-21T06:30:12;100652.78;;;16.24;63.49
12182;BME280;6154;51.550;12.138;2023-04-21T06:32:40;100646.72;;;16.33;63.71
12182;BME280;6154;51.550;12.138;2023-04-21T06:35:08;100648.97;;;16.50;63.13
12182;BME280;6154;51.550;12.138;2023-04-21T06:37:36;100645.28;;;16.64;63.52
12182;BME280;6154;51.550;12.138;2023-04-21T06:40:05;100643.31;;;16.66;63.28
12182;BME280;6154;51.550;12.138;2023-04-21T06:42:35;100636.09;;;16.79;62.55
12182;BME280;6154;51.550;12.138;2023-04-21T06:45:04;100637.19;;;16.99;62.22
12182;BME280;6154;51.550;12.138;2023-04-21T06:47:32;100645.09;;;17.12;62.29
12182;BME280;6154;51.550;12.138;2023-04-21T06:50:00;100633.94;;;17.18;62.09
12182;BME280;6154;51.550;12.138;2023-04-21T06:52:29;100644.28;;;17.34;61.69
12182;BME280;6154;51.550;12.138;2023-04-21T06:54:57;100643.16;;;17.47;61.99
12182;BME280;6154;51.550;12.138;2023-04-21T06:57:25;100641.56;;;17.56;61.20
12182;BME280;6154;51.550;12.138;2023-04-21T06:59:54;100640.00;;;17.76;61.27
12182;BME280;6154;51.550;12.138;2023-04-21T07:02:22;100640.09;;;17.86;61.25
12182;BME280;6154;51.550;12.138;2023-04-21T07:04:50;100632.69;;;18.10;60.85
12182;BME280;6154;51.550;12.138;2023-04-21T07:07:19;100635.31;;;18.21;60.98
12182;BME280;6154;51.550;12.138;2023-04-21T07:09:47;100636.59;;;18.38;60.42
12182;BME280;6154;51.550;12.138;2023-04-21T07:12:15;100630.84;;;18.43;59.98
12182;BME280;6154;51.550;12.138;2023-04-21T07:14:43;100634.97;;;18.47;59.62
12182;BME280;6154;51.550;12.138;2023-04-21T07:17:12;100635.59;;;18.71;59.97
12182;BME280;6154;51.550;12.138;2023-04-21T07:19:41;100623.13;;;18.91;59.80
12182;BME280;6154;51.550;12.138;2023-04-21T07:22:09;100625.06;;;19.10;59.23
12182;BME280;6154;51.550;12.138;2023-04-21T07:24:37;100630.66;;;19.28;59.37
12182;BME280;6154;51.550;12.138;2023-04-21T07:27:05;100624.94;;;19.51;59.36
12182;BME280;6154;51.550;12.138;2023-04-21T07:29:33;100629.97;;;19.66;58.86
12182;BME280;6154;51.550;12.138;2023-04-21T07:32:03;100622.34;;;19.80;58.64
12182;BME280;6154;51.550;12.138;2023-04-21T07:34:32;100632.25;;;19.80;57.58
12182;BME280;6154;51.550;12.138;2023-04-21T07:37:00;100626.50;;;19.94;57.11
12182;BME280;6154;51.550;12.138;2023-04-21T07:39:28;100621.69;;;20.07;57.11
12182;BME280;6154;51.550;12.138;2023-04-21T07:41:56;100623.22;;;20.20;57.13
12182;BME280;6154;51.550;12.138;2023-04-21T07:44:27;100623.53;;;20.36;57.03
12182;BME280;6154;51.550;12.138;2023-04-21T07:46:55;100617.00;;;20.58;57.20
12182;BME280;6154;51.550;12.138;2023-04-21T07:49:24;100618.38;;;20.72;56.77
12182;BME280;6154;51.550;12.138;2023-04-21T07:51:53;100613.97;;;20.80;56.28
12182;BME280;6154;51.550;12.138;2023-04-21T07:54:21;100619.47;;;20.98;56.52
12182;BME280;6154;51.550;12.138;2023-04-21T07:56:49;100613.47;;;21.04;55.18
12182;BME280;6154;51.550;12.138;2023-04-21T07:59:18;100613.34;;;21.06;54.97
12182;BME280;6154;51.550;12.138;2023-04-21T08:01:46;100626.03;;;21.13;55.03
12182;BME280;6154;51.550;12.138;2023-04-21T08:04:14;100614.84;;;21.18;55.45
12182;BME280;6154;51.550;12.138;2023-04-21T08:06:42;100611.44;;;21.26;55.04
12182;BME280;6154;51.550;12.138;2023-04-21T08:09:12;100609.22;;;21.48;55.50
12182;BME280;6154;51.550;12.138;2023-04-21T08:11:41;100610.94;;;21.67;54.62
12182;BME280;6154;51.550;12.138;2023-04-21T08:14:09;100613.66;;;21.85;54.54
12182;BME280;6154;51.550;12.138;2023-04-21T08:16:38;100607.56;;;22.01;53.84
12182;BME280;6154;51.550;12.138;2023-04-21T08:19:06;100600.44;;;22.09;54.15
12182;BME280;6154;51.550;12.138;2023-04-21T08:21:35;100601.28;;;22.28;53.80
12182;BME280;6154;51.550;12.138;2023-04-21T08:24:03;100602.81;;;22.30;53.95
12182;BME280;6154;51.550;12.138;2023-04-21T08:26:33;100606.34;;;22.49;53.84
12182;BME280;6154;51.550;12.138;2023-04-21T08:29:01;100615.31;;;22.31;51.31
12182;BME280;6154;51.550;12.138;2023-04-21T08:31:33;100601.28;;;22.46;53.15
12182;BME280;6154;51.550;12.138;2023-04-21T08:34:02;100604.84;;;22.54;52.59
12182;BME280;6154;51.550;12.138;2023-04-21T08:36:30;100608.78;;;22.60;52.58
12182;BME280;6154;51.550;12.138;2023-04-21T08:38:59;100601.81;;;22.75;53.16
12182;BME280;6154;51.550;12.138;2023-04-21T08:41:27;100601.25;;;22.89;51.84
12182;BME280;6154;51.550;12.138;2023-04-21T08:43:56;100602.34;;;23.05;52.86
12182;BME280;6154;51.550;12.138;2023-04-21T08:46:26;100599.06;;;23.19;52.21
12182;BME280;6154;51.550;12.138;2023-04-21T08:48:57;100598.25;;;23.27;50.87
12182;BME280;6154;51.550;12.138;2023-04-21T08:51:26;100602.84;;;23.42;50.64
12182;BME280;6154;51.550;12.138;2023-04-21T08:53:56;100601.69;;;23.45;51.47
12182;BME280;6154;51.550;12.138;2023-04-21T08:56:24;100602.19;;;23.40;50.75
12182;BME280;6154;51.550;12.138;2023-04-21T08:58:53;100595.59;;;23.43;50.13
12182;BME280;6154;51.550;12.138;2023-04-21T09:01:22;100592.41;;;23.47;51.15
12182;BME280;6154;51.550;12.138;2023-04-21T09:03:51;100593.41;;;23.38;50.70
12182;BME280;6154;51.550;12.138;2023-04-21T09:06:39;100595.72;;;23.67;49.81
12182;BME280;6154;51.550;12.138;2023-04-21T09:09:09;100598.28;;;23.77;48.65
12182;BME280;6154;51.550;12.138;2023-04-21T09:11:40;100598.09;;;23.78;49.86
12182;BME280;6154;51.550;12.138;2023-04-21T09:14:10;100594.03;;;23.74;47.82
12182;BME280;6154;51.550;12.138;2023-04-21T09:16:42;100595.22;;;23.80;49.00
12182;BME280;6154;51.550;12.138;2023-04-21T09:19:13;100595.41;;;23.87;49.34
12182;BME280;6154;51.550;12.138;2023-04-21T09:21:43;100594.56;;;23.86;47.70
12182;BME280;6154;51.550;12.138;2023-04-21T09:24:11;100590.03;;;24.11;49.33
12182;BME280;6154;51.550;12.138;2023-04-21T09:26:41;100587.88;;;24.31;49.41
12182;BME280;6154;51.550;12.138;2023-04-21T09:29:10;100582.47;;;24.39;49.42
12182;BME280;6154;51.550;12.138;2023-04-21T09:31:39;100590.41;;;24.49;48.94
12182;BME280;6154;51.550;12.138;2023-04-21T09:34:17;100584.81;;;24.58;48.38
12182;BME280;6154;51.550;12.138;2023-04-21T09:36:46;100580.06;;;24.52;46.10
12182;BME280;6154;51.550;12.138;2023-04-21T09:39:14;100587.81;;;24.80;48.95
12182;BME280;6154;51.550;12.138;2023-04-21T09:41:46;100575.66;;;24.76;47.93
12182;BME280;6154;51.550;12.138;2023-04-21T09:44:14;100569.72;;;24.64;47.98
12182;BME280;6154;51.550;12.138;2023-04-21T09:46:47;100568.19;;;24.86;47.58
12182;BME280;6154;51.550;12.138;2023-04-21T09:49:17;100566.81;;;24.82;45.83
12182;BME280;6154;51.550;12.138;2023-04-21T09:51:45;100557.62;;;24.99;47.97
12182;BME280;6154;51.550;12.138;2023-04-21T09:54:18;100560.00;;;25.10;46.54
12182;BME280;6154;51.550;12.138;2023-04-21T09:56:52;100555.94;;;24.98;44.07
12182;BME280;6154;51.550;12.138;2023-04-21T09:59:26;100560.53;;;25.06;46.01
12182;BME280;6154;51.550;12.138;2023-04-21T10:01:58;100548.78;;;25.13;45.37
12182;BME280;6154;51.550;12.138;2023-04-21T10:04:30;100561.19;;;25.08;43.96
12182;BME280;6154;51.550;12.138;2023-04-21T10:06:59;100553.25;;;24.98;44.49
12182;BME280;6154;51.550;12.138;2023-04-21T10:09:37;100549.19;;;25.02;42.67
12182;BME280;6154;51.550;12.138;2023-04-21T10:12:08;100557.47;;;25.09;42.11
12182;BME280;6154;51.550;12.138;2023-04-21T10:14:39;100552.41;;;25.06;44.57
12182;BME280;6154;51.550;12.138;2023-04-21T10:17:09;100540.38;;;25.08;44.86
12182;BME280;6154;51.550;12.138;2023-04-21T10:19:47;100538.00;;;25.05;43.39
12182;BME280;6154;51.550;12.138;2023-04-21T10:22:25;100544.97;;;24.83;41.39
12182;BME280;6154;51.550;12.138;2023-04-21T10:24:54;100547.66;;;25.08;43.16
12182;BME280;6154;51.550;12.138;2023-04-21T10:27:34;100536.09;;;25.14;46.10
12182;BME280;6154;51.550;12.138;2023-04-21T10:30:17;100540.25;;;25.33;41.74
12182;BME280;6154;51.550;12.138;2023-04-21T10:32:48;100536.06;;;25.22;38.87
12182;BME280;6154;51.550;12.138;2023-04-21T10:35:59;100539.50;;;25.47;43.64
12182;BME280;6154;51.550;12.138;2023-04-21T10:38:32;100531.38;;;25.16;41.75
12182;BME280;6154;51.550;12.138;2023-04-21T10:41:24;100524.16;;;25.31;39.88
12182;BME280;6154;51.550;12.138;2023-04-21T10:43:56;100524.41;;;25.44;40.71
12182;BME280;6154;51.550;12.138;2023-04-21T10:46:32;100525.81;;;25.63;42.28
12182;BME280;6154;51.550;12.138;2023-04-21T10:49:06;100522.34;;;25.86;40.25
12182;BME280;6154;51.550;12.138;2023-04-21T10:54:46;100517.72;;;26.09;40.47
12182;BME280;6154;51.550;12.138;2023-04-21T10:57:32;100523.81;;;26.11;43.43
12182;BME280;6154;51.550;12.138;2023-04-21T11:00:02;100523.88;;;26.03;44.10
12182;BME280;6154;51.550;12.138;2023-04-21T11:02:33;100514.19;;;26.23;42.90
12182;BME280;6154;51.550;12.138;2023-04-21T11:05:08;100503.81;;;26.27;42.39
12182;BME280;6154;51.550;12.138;2023-04-21T11:07:37;100509.13;;;26.58;43.80
12182;BME280;6154;51.550;12.138;2023-04-21T11:10:06;100505.66;;;26.64;43.28
12182;BME280;6154;51.550;12.138;2023-04-21T11:12:37;100504.06;;;26.70;43.36
12182;BME280;6154;51.550;12.138;2023-04-21T11:15:07;100501.34;;;26.84;43.07
12182;BME280;6154;51.550;12.138;2023-04-21T11:17:37;100498.00;;;26.68;42.63
12182;BME280;6154;51.550;12.138;2023-04-21T11:20:10;100494.87;;;26.71;42.00
12182;BME280;6154;51.550;12.138;2023-04-21T11:22:38;100489.34;;;26.64;40.18
12182;BME280;6154;51.550;12.138;2023-04-21T11:25:16;100475.97;;;26.77;42.70
12182;BME280;6154;51.550;12.138;2023-04-21T11:27:52;100483.56;;;26.67;39.52
12182;BME280;6154;51.550;12.138;2023-04-21T11:30:21;100483.88;;;26.34;39.00
12182;BME280;6154;51.550;12.138;2023-04-21T11:32:57;100475.69;;;26.43;41.01
12182;BME280;6154;51.550;12.138;2023-04-21T11:35:27;100477.59;;;26.57;42.04
12182;BME280;6154;51.550;12.138;2023-04-21T11:37:55;100466.16;;;26.76;41.59
12182;BME280;6154;51.550;12.138;2023-04-21T11:40:23;100472.88;;;27.10;42.87
12182;BME280;6154;51.550;12.138;2023-04-21T11:42:51;100469.41;;;27.16;41.86
12182;BME280;6154;51.550;12.138;2023-04-21T11:45:20;100460.34;;;27.30;42.11
12182;BME280;6154;51.550;12.138;2023-04-21T11:47:49;100471.94;;;27.03;40.77
12182;BME280;6154;51.550;12.138;2023-04-21T11:50:30;100460.03;;;26.89;41.11
12182;BME280;6154;51.550;12.138;2023-04-21T11:53:01;100463.59;;;26.75;38.80
12182;BME280;6154;51.550;12.138;2023-04-21T11:55:29;100454.81;;;26.73;40.12
12182;BME280;6154;51.550;12.138;2023-04-21T11:57:57;100466.16;;;27.06;42.89
12182;BME280;6154;51.550;12.138;2023-04-21T12:00:28;100452.75;;;27.26;40.87
12182;BME280;6154;51.550;12.138;2023-04-21T12:02:57;100448.97;;;27.41;39.74
12182;BME280;6154;51.550;12.138;2023-04-21T12:05:34;100446.00;;;27.58;41.61
12182;BME280;6154;51.550;12.138;2023-04-21T12:08:03;100447.88;;;27.36;36.39
12182;BME280;6154;51.550;12.138;2023-04-21T12:10:32;100451.13;;;27.46;41.16
12182;BME280;6154;51.550;12.138;2023-04-21T12:13:00;100445.69;;;27.46;39.21
12182;BME280;6154;51.550;12.138;2023-04-21T12:15:29;100447.59;;;27.31;40.98
12182;BME280;6154;51.550;12.138;2023-04-21T12:17:57;100449.59;;;27.22;40.16
12182;BME280;6154;51.550;12.138;2023-04-21T12:20:28;100447.94;;;26.91;40.83
12182;BME280;6154;51.550;12.138;2023-04-21T12:22:58;100442.97;;;26.95;39.67
12182;BME280;6154;51.550;12.138;2023-04-21T12:25:27;100445.97;;;27.00;39.50
12182;BME280;6154;51.550;12.138;2023-04-21T12:27:57;100448.88;;;26.99;39.08
12182;BME280;6154;51.550;12.138;2023-04-21T12:30:25;100440.47;;;26.79;39.18
12182;BME280;6154;51.550;12.138;2023-04-21T12:32:54;100432.09;;;26.95;39.03
12182;BME280;6154;51.550;12.138;2023-04-21T12:35:22;100426.84;;;26.93;39.92
12182;BME280;6154;51.550;12.138;2023-04-21T12:37:51;100436.69;;;26.94;40.52
12182;BME280;6154;51.550;12.138;2023-04-21T12:40:20;100437.28;;;26.90;40.37
12182;BME280;6154;51.550;12.138;2023-04-21T12:42:48;100423.25;;;26.86;39.79
12182;BME280;6154;51.550;12.138;2023-04-21T12:45:17;100419.94;;;26.91;40.40
12182;BME280;6154;51.550;12.138;2023-04-21T12:47:45;100423.09;;;26.94;40.46
12182;BME280;6154;51.550;12.138;2023-04-21T12:50:14;100414.19;;;27.01;39.62
12182;BME280;6154;51.550;12.138;2023-04-21T12:52:43;100410.56;;;27.08;37.88
12182;BME280;6154;51.550;12.138;2023-04-21T12:55:11;100421.47;;;27.15;39.08
12182;BME280;6154;51.550;12.138;2023-04-21T12:57:41;100413.81;;;27.18;38.14
12182;BME280;6154;51.550;12.138;2023-04-21T13:00:10;100410.84;;;26.99;38.16
12182;BME280;6154;51.550;12.138;2023-04-21T13:02:40;100409.41;;;27.17;37.85
12182;BME280;6154;51.550;12.138;2023-04-21T13:05:09;100412.91;;;26.97;38.63